Time;durP1;ratioP1;P1;durP2;ratioP2;P2;SDS_P1;SDS_P2;PMS_P1;PMS_P2;Temp;Humidity;BMP_temperature;BMP_pressure;BME280_temperature;BME280_humidity;BME280_pressure;Samples;Min_cycle;Max_cycle;Signal;HPM_P1;HPM_P2
2021/01/03 00:00:31;;;;;;;2.33;1.60;;;;;;;;;;5011299;28;20018;-88
2021/01/03 00:02:58;;;;;;;2.22;2.03;;;;;;;;;;5011379;28;20021;-88
2021/01/03 00:05:28;;;;;;;2.22;2.03;;;;;;;;;;5010280;28;20018;-88
2021/01/03 00:07:55;;;;;;;2.17;1.98;;;;;;;;;;4993250;28;20445;-88
2021/01/03 00:10:21;;;;;;;1.73;1.63;;;;;;;;;;5010959;28;20053;-88
2021/01/03 00:12:47;;;;;;;2.08;1.85;;;;;;;;;;4993362;28;20069;-88
2021/01/03 00:15:15;;;;;;;2.60;2.30;;;;;;;;;;4993774;28;20393;-87
2021/01/03 00:17:41;;;;;;;1.60;1.50;;;;;;;;;;5010809;28;20030;-88
2021/01/03 00:20:09;;;;;;;1.75;1.65;;;;;;;;;;5011485;28;20030;-88
2021/01/03 00:22:35;;;;;;;1.58;1.48;;;;;;;;;;4993015;28;20057;-88
2021/01/03 00:25:01;;;;;;;2.20;2.05;;;;;;;;;;4993911;28;20022;-88
2021/01/03 00:27:27;;;;;;;1.70;1.60;;;;;;;;;;5010894;28;20525;-88
2021/01/03 00:29:53;;;;;;;3.42;2.70;;;;;;;;;;4993421;28;20533;-88
2021/01/03 00:32:20;;;;;;;2.42;2.00;;;;;;;;;;5011254;28;20026;-88
2021/01/03 00:34:46;;;;;;;2.55;2.15;;;;;;;;;;5009765;28;20040;-88
2021/01/03 00:37:12;;;;;;;1.58;1.48;;;;;;;;;;5010622;28;20038;-87
2021/01/03 00:39:38;;;;;;;2.92;1.40;;;;;;;;;;4993131;28;20088;-88
2021/01/03 00:42:04;;;;;;;1.52;1.42;;;;;;;;;;4993525;28;20010;-88
2021/01/03 00:44:30;;;;;;;1.52;1.42;;;;;;;;;;4992963;28;20477;-88
2021/01/03 00:46:56;;;;;;;1.70;1.60;;;;;;;;;;4992727;28;20026;-87
2021/01/03 00:49:22;;;;;;;2.30;1.63;;;;;;;;;;4992979;28;20080;-88
2021/01/03 00:51:48;;;;;;;1.77;1.67;;;;;;;;;;4993030;28;20040;-88
2021/01/03 00:54:14;;;;;;;1.50;1.40;;;;;;;;;;4992983;28;20510;-88
2021/01/03 00:56:40;;;;;;;1.77;1.33;;;;;;;;;;5010745;28;20069;-88
2021/01/03 00:59:06;;;;;;;1.33;1.23;;;;;;;;;;4993215;28;20022;-88
2021/01/03 01:01:32;;;;;;;1.23;1.13;;;;;;;;;;4993331;28;20033;-87
2021/01/03 01:03:58;;;;;;;1.27;1.13;;;;;;;;;;5010392;28;20026;-88
2021/01/03 01:06:24;;;;;;;1.17;1.08;;;;;;;;;;5009605;28;20193;-88
2021/01/03 01:08:51;;;;;;;2.70;1.33;;;;;;;;;;4992604;28;20026;-87
2021/01/03 01:11:18;;;;;;;1.38;1.20;;;;;;;;;;5011053;28;20030;-88
2021/01/03 01:13:44;;;;;;;1.00;0.90;;;;;;;;;;5010429;28;20040;-88
2021/01/03 01:16:10;;;;;;;1.30;1.20;;;;;;;;;;4993236;28;20084;-87
2021/01/03 01:18:36;;;;;;;2.67;1.55;;;;;;;;;;4992857;28;20093;-87
2021/01/03 01:21:02;;;;;;;0.98;0.90;;;;;;;;;;5010698;28;20378;-88
2021/01/03 01:23:28;;;;;;;0.88;0.82;;;;;;;;;;4992507;28;20118;-87
2021/01/03 01:25:54;;;;;;;2.33;1.60;;;;;;;;;;4992337;28;20029;-88
2021/01/03 01:28:20;;;;;;;1.23;1.10;;;;;;;;;;4992732;28;20026;-88
2021/01/03 01:30:47;;;;;;;2.97;2.30;;;;;;;;;;4992787;28;20044;-87
2021/01/03 01:33:13;;;;;;;1.25;1.13;;;;;;;;;;4992558;28;20512;-88
2021/01/03 01:35:39;;;;;;;2.33;1.10;;;;;;;;;;5013467;28;20030;-88
2021/01/03 01:38:05;;;;;;;1.45;1.10;;;;;;;;;;4987496;28;20390;-88
2021/01/03 01:40:33;;;;;;;2.70;1.58;;;;;;;;;;4977244;28;20485;-88
2021/01/03 01:42:59;;;;;;;1.08;0.85;;;;;;;;;;4994562;28;20058;-88
2021/01/03 01:45:28;;;;;;;0.88;0.88;;;;;;;;;;4994237;28;20030;-88
2021/01/03 01:47:56;;;;;;;1.40;0.93;;;;;;;;;;4976305;28;20057;-88
2021/01/03 01:50:26;;;;;;;2.42;1.83;;;;;;;;;;4976978;28;20497;-88
2021/01/03 01:52:56;;;;;;;1.35;0.80;;;;;;;;;;4993886;28;20022;-88
2021/01/03 01:55:33;;;;;;;1.08;0.98;;;;;;;;;;4992274;28;20110;-88
2021/01/03 01:57:59;;;;;;;1.33;1.02;;;;;;;;;;4993601;28;20435;-87
2021/01/03 02:00:28;;;;;;;1.35;1.25;;;;;;;;;;4976777;28;20038;-87
2021/01/03 02:03:06;;;;;;;1.00;1.00;;;;;;;;;;4976233;28;20033;-87
2021/01/03 02:05:38;;;;;;;0.80;0.80;;;;;;;;;;4975391;28;20517;-88
2021/01/03 02:08:15;;;;;;;0.73;0.70;;;;;;;;;;4976135;28;20029;-88
2021/01/03 02:10:44;;;;;;;0.68;0.68;;;;;;;;;;4976507;28;20050;-88
2021/01/03 02:13:22;;;;;;;0.82;0.82;;;;;;;;;;4975983;28;20456;-87
2021/01/03 02:15:49;;;;;;;0.70;0.70;;;;;;;;;;4976282;28;20042;-87
2021/01/03 02:18:16;;;;;;;1.00;0.93;;;;;;;;;;4976155;28;20414;-87
2021/01/03 02:20:42;;;;;;;0.73;0.73;;;;;;;;;;4975667;28;20030;-87
2021/01/03 02:23:08;;;;;;;0.70;0.70;;;;;;;;;;4975672;28;20022;-87
2021/01/03 02:25:35;;;;;;;1.02;1.00;;;;;;;;;;4993804;28;20026;-88
2021/01/03 02:28:01;;;;;;;1.55;0.80;;;;;;;;;;4993192;28;20113;-88
2021/01/03 02:30:28;;;;;;;0.60;0.60;;;;;;;;;;4994316;28;20061;-88
2021/01/03 02:33:13;;;;;;;1.77;1.00;;;;;;;;;;4975616;28;20117;-87
2021/01/03 02:35:40;;;;;;;1.08;1.08;;;;;;;;;;4991815;28;20066;-87
2021/01/03 02:38:07;;;;;;;1.08;0.75;;;;;;;;;;4984208;28;20030;-87
2021/01/03 02:40:33;;;;;;;0.70;0.70;;;;;;;;;;4995258;28;20053;-87
2021/01/03 02:42:59;;;;;;;0.60;0.60;;;;;;;;;;4995239;28;20093;-87
2021/01/03 02:45:30;;;;;;;0.55;0.50;;;;;;;;;;4994013;28;20026;-87
2021/01/03 02:48:06;;;;;;;0.60;0.60;;;;;;;;;;4994324;28;20022;-87
2021/01/03 02:50:32;;;;;;;0.60;0.60;;;;;;;;;;4994928;28;20512;-87
2021/01/03 02:52:58;;;;;;;1.30;1.20;;;;;;;;;;4994883;28;20033;-87
2021/01/03 02:55:24;;;;;;;1.25;1.25;;;;;;;;;;4994851;28;20046;-87
2021/01/03 02:57:50;;;;;;;0.98;0.60;;;;;;;;;;4994613;28;20401;-87
2021/01/03 03:00:21;;;;;;;0.85;0.85;;;;;;;;;;4994881;28;20033;-87
2021/01/03 03:02:47;;;;;;;0.70;0.70;;;;;;;;;;4994184;28;20014;-87
2021/01/03 03:05:13;;;;;;;1.08;0.93;;;;;;;;;;5011340;28;20026;-88
2021/01/03 03:07:39;;;;;;;1.05;0.82;;;;;;;;;;4993805;28;20038;-87
2021/01/03 03:10:06;;;;;;;1.42;1.25;;;;;;;;;;4994639;28;20034;-87
2021/01/03 03:12:32;;;;;;;0.90;0.90;;;;;;;;;;5012334;28;20030;-87
2021/01/03 03:14:58;;;;;;;1.00;1.00;;;;;;;;;;4994486;28;20052;-87
2021/01/03 03:17:24;;;;;;;0.90;0.90;;;;;;;;;;4994049;28;20026;-87
2021/01/03 03:19:50;;;;;;;0.88;0.88;;;;;;;;;;4994661;28;20061;-87
2021/01/03 03:22:16;;;;;;;1.15;0.68;;;;;;;;;;4994382;28;20014;-87
2021/01/03 03:24:42;;;;;;;0.82;0.82;;;;;;;;;;4994062;28;20026;-88
2021/01/03 03:27:09;;;;;;;1.17;0.80;;;;;;;;;;4994162;28;20023;-88
2021/01/03 03:29:36;;;;;;;1.00;0.90;;;;;;;;;;5012050;28;20058;-87
2021/01/03 03:32:03;;;;;;;1.38;1.20;;;;;;;;;;5011392;28;20049;-88
2021/01/03 03:34:29;;;;;;;0.95;0.80;;;;;;;;;;4993290;28;20034;-88
2021/01/03 03:36:55;;;;;;;0.80;0.80;;;;;;;;;;5011746;28;20036;-88
2021/01/03 03:39:23;;;;;;;0.77;0.70;;;;;;;;;;4993528;28;20029;-88
2021/01/03 03:41:50;;;;;;;0.80;0.80;;;;;;;;;;4994285;28;20501;-88
2021/01/03 03:44:16;;;;;;;0.50;0.47;;;;;;;;;;5011554;28;20477;-87
2021/01/03 03:46:42;;;;;;;1.42;0.65;;;;;;;;;;5010782;28;20076;-87
2021/01/03 03:49:08;;;;;;;1.45;1.10;;;;;;;;;;4993573;28;20022;-87
2021/01/03 03:51:34;;;;;;;0.93;0.93;;;;;;;;;;4994027;28;20030;-88
2021/01/03 03:54:00;;;;;;;1.25;1.15;;;;;;;;;;5011243;28;20045;-87
2021/01/03 03:56:26;;;;;;;0.80;0.60;;;;;;;;;;5011356;28;20422;-87
2021/01/03 03:58:52;;;;;;;0.70;0.70;;;;;;;;;;4993052;28;20080;-88
2021/01/03 04:01:18;;;;;;;1.80;0.85;;;;;;;;;;5011565;28;20029;-88
2021/01/03 04:03:44;;;;;;;1.17;1.08;;;;;;;;;;5010731;28;20022;-88
2021/01/03 04:06:10;;;;;;;0.40;0.40;;;;;;;;;;4991731;28;20271;-87
2021/01/03 04:08:37;;;;;;;0.80;0.80;;;;;;;;;;5010533;28;20037;-87
2021/01/03 04:11:04;;;;;;;1.52;0.80;;;;;;;;;;4993197;28;20120;-87
2021/01/03 04:13:30;;;;;;;0.98;0.70;;;;;;;;;;5010683;28;20108;-87
2021/01/03 04:15:56;;;;;;;1.48;0.73;;;;;;;;;;4993239;28;20370;-87
2021/01/03 04:18:22;;;;;;;0.77;0.70;;;;;;;;;;4993084;28;20401;-87
2021/01/03 04:20:48;;;;;;;1.33;0.85;;;;;;;;;;4993323;28;20037;-88
2021/01/03 04:23:14;;;;;;;0.40;0.40;;;;;;;;;;4992480;28;20545;-87
2021/01/03 04:25:40;;;;;;;0.75;0.40;;;;;;;;;;4993265;28;20473;-88
2021/01/03 04:28:06;;;;;;;0.82;0.52;;;;;;;;;;5010749;28;20164;-87
2021/01/03 04:30:33;;;;;;;0.55;0.50;;;;;;;;;;5011376;28;20030;-87
2021/01/03 04:32:59;;;;;;;0.63;0.63;;;;;;;;;;4992930;28;20029;-87
2021/01/03 04:35:25;;;;;;;1.63;0.90;;;;;;;;;;4991975;28;20030;-87
2021/01/03 04:37:52;;;;;;;0.35;0.35;;;;;;;;;;5010451;28;20481;-88
2021/01/03 04:40:20;;;;;;;0.40;0.38;;;;;;;;;;4993773;28;20029;-87
2021/01/03 04:42:51;;;;;;;0.40;0.40;;;;;;;;;;4992689;28;20117;-87
2021/01/03 04:45:20;;;;;;;0.57;0.40;;;;;;;;;;5010903;28;20034;-87
2021/01/03 04:47:52;;;;;;;0.52;0.35;;;;;;;;;;5010729;28;20052;-87
2021/01/03 04:50:28;;;;;;;0.40;0.40;;;;;;;;;;4992989;28;20484;-87
2021/01/03 04:53:00;;;;;;;0.50;0.50;;;;;;;;;;5010709;28;20080;-87
2021/01/03 04:55:27;;;;;;;0.57;0.40;;;;;;;;;;4993511;28;20511;-87
2021/01/03 04:58:02;;;;;;;0.40;0.40;;;;;;;;;;4992626;28;20073;-87
2021/01/03 05:00:32;;;;;;;0.77;0.50;;;;;;;;;;4993530;28;20092;-87
2021/01/03 05:03:17;;;;;;;0.45;0.43;;;;;;;;;;5010648;28;20060;-87
2021/01/03 05:05:51;;;;;;;1.65;0.50;;;;;;;;;;4991525;28;20064;-87
2021/01/03 05:08:16;;;;;;;;;;;;;;;;;;4993381;28;20029;-87
2021/01/03 05:10:43;;;;;;;0.30;0.30;;;;;;;;;;4996567;28;20388;-88
2021/01/03 05:13:29;;;;;;;0.47;0.47;;;;;;;;;;4996225;28;20037;-87
2021/01/03 05:15:55;;;;;;;0.40;0.40;;;;;;;;;;4997147;28;20030;-87
2021/01/03 05:18:21;;;;;;;0.30;0.30;;;;;;;;;;5014755;28;20030;-87
2021/01/03 05:20:58;;;;;;;0.68;0.68;;;;;;;;;;5014785;28;20396;-87
2021/01/03 05:23:25;;;;;;;0.40;0.40;;;;;;;;;;4996263;28;20539;-87
2021/01/03 05:25:52;;;;;;;0.38;0.38;;;;;;;;;;4995905;28;20050;-87
2021/01/03 05:28:29;;;;;;;0.75;0.50;;;;;;;;;;4996731;28;20033;-87
2021/01/03 05:31:14;;;;;;;0.40;0.35;;;;;;;;;;5014095;28;20033;-87
2021/01/03 05:33:49;;;;;;;0.45;0.32;;;;;;;;;;4995271;28;20112;-87
2021/01/03 05:36:34;;;;;;;0.30;0.30;;;;;;;;;;4994733;28;20026;-87
2021/01/03 05:39:03;;;;;;;0.50;0.20;;;;;;;;;;4996080;28;20120;-87
2021/01/03 05:41:38;;;;;;;0.43;0.43;;;;;;;;;;5013656;28;20065;-87
2021/01/03 05:44:09;;;;;;;0.57;0.40;;;;;;;;;;5013165;28;20500;-87
2021/01/03 05:46:42;;;;;;;0.35;0.35;;;;;;;;;;5013404;28;20018;-87
2021/01/03 05:49:10;;;;;;;0.40;0.40;;;;;;;;;;5013404;28;20037;-87
2021/01/03 05:51:42;;;;;;;0.40;0.40;;;;;;;;;;4996123;28;20037;-87
2021/01/03 05:54:11;;;;;;;0.70;0.55;;;;;;;;;;4995742;28;20054;-87
2021/01/03 05:56:38;;;;;;;0.32;0.32;;;;;;;;;;4996323;28;20065;-87
2021/01/03 05:59:04;;;;;;;0.35;0.35;;;;;;;;;;5013078;28;20362;-87
2021/01/03 06:01:32;;;;;;;0.15;0.15;;;;;;;;;;4996303;28;20497;-87
2021/01/03 06:04:03;;;;;;;0.30;0.30;;;;;;;;;;5013319;28;20044;-87
2021/01/03 06:06:48;;;;;;;0.30;0.30;;;;;;;;;;5012229;28;20022;-87
2021/01/03 06:09:16;;;;;;;1.10;0.65;;;;;;;;;;4995308;28;20022;-87
2021/01/03 06:11:57;;;;;;;0.20;0.20;;;;;;;;;;5013361;28;20034;-87
2021/01/03 06:14:24;;;;;;;0.40;0.40;;;;;;;;;;4995523;28;20037;-88
2021/01/03 06:16:50;;;;;;;0.32;0.30;;;;;;;;;;4995778;28;20036;-87
2021/01/03 06:19:33;;;;;;;0.43;0.40;;;;;;;;;;4995446;28;20022;-87
2021/01/03 06:22:02;;;;;;;0.22;0.22;;;;;;;;;;5013308;28;20480;-87
2021/01/03 06:24:29;;;;;;;0.20;0.20;;;;;;;;;;4995471;28;20034;-87
2021/01/03 06:26:56;;;;;;;0.20;0.20;;;;;;;;;;5013040;28;20068;-87
2021/01/03 06:29:22;;;;;;;0.45;0.45;;;;;;;;;;4995384;28;20030;-87
2021/01/03 06:31:49;;;;;;;1.23;0.30;;;;;;;;;;5012821;28;20061;-87
2021/01/03 06:34:30;;;;;;;0.50;0.40;;;;;;;;;;4994853;28;20374;-87
2021/01/03 06:36:58;;;;;;;0.40;0.40;;;;;;;;;;4994779;28;20413;-87
2021/01/03 06:39:30;;;;;;;0.35;0.35;;;;;;;;;;4991801;28;20521;-87
2021/01/03 06:42:04;;;;;;;0.38;0.38;;;;;;;;;;4991888;28;20026;-87
2021/01/03 06:44:30;;;;;;;;;;;;;;;;;;4993532;28;20101;-87
2021/01/03 06:47:08;;;;;;;0.40;0.30;;;;;;;;;;4993240;28;19960;-87
2021/01/03 06:49:40;;;;;;;0.50;0.50;;;;;;;;;;4992830;28;20027;-87
2021/01/03 06:52:06;;;;;;;0.55;0.55;;;;;;;;;;4991511;28;20018;-87
2021/01/03 06:54:50;;;;;;;0.55;0.55;;;;;;;;;;4990805;28;20050;-87
2021/01/03 06:57:16;;;;;;;;;;;;;;;;;;4993514;28;20584;-87
2021/01/03 06:59:48;;;;;;;0.40;0.40;;;;;;;;;;4990041;28;19917;-87
2021/01/03 07:02:16;;;;;;;0.77;0.77;;;;;;;;;;4992058;28;20489;-87
2021/01/03 07:04:42;;;;;;;0.50;0.50;;;;;;;;;;4990313;28;20125;-87
2021/01/03 07:07:11;;;;;;;0.30;0.30;;;;;;;;;;4991118;28;20030;-87
2021/01/03 07:09:54;;;;;;;0.30;0.30;;;;;;;;;;4991074;28;20409;-87
2021/01/03 07:12:32;;;;;;;0.20;0.20;;;;;;;;;;4991373;28;20481;-87
2021/01/03 07:14:58;;;;;;;0.73;0.38;;;;;;;;;;4991143;28;20031;-87
2021/01/03 07:17:26;;;;;;;0.20;0.20;;;;;;;;;;4992886;28;20498;-87
2021/01/03 07:20:02;;;;;;;0.40;0.30;;;;;;;;;;4991201;28;20493;-87
2021/01/03 07:22:36;;;;;;;0.22;0.20;;;;;;;;;;4992428;28;20030;-87
2021/01/03 07:25:02;;;;;;;;;;;;;;;;;;4993061;28;20022;-88
2021/01/03 07:27:29;;;;;;;0.20;0.20;;;;;;;;;;4991144;28;19906;-87
2021/01/03 07:29:55;;;;;;;0.30;0.30;;;;;;;;;;4991000;28;20030;-87
2021/01/03 07:32:22;;;;;;;0.40;0.40;;;;;;;;;;4992000;28;20022;-87
2021/01/03 07:34:52;;;;;;;0.50;0.50;;;;;;;;;;4989789;28;20038;-87
2021/01/03 07:37:20;;;;;;;0.20;0.20;;;;;;;;;;4994300;28;20027;-87
2021/01/03 07:40:03;;;;;;;0.47;0.40;;;;;;;;;;4994044;28;20401;-87
2021/01/03 07:42:37;;;;;;;1.42;0.57;;;;;;;;;;4993887;28;20379;-87
2021/01/03 07:45:12;;;;;;;0.47;0.47;;;;;;;;;;5011660;28;20080;-87
2021/01/03 07:47:49;;;;;;;0.88;0.68;;;;;;;;;;5011785;28;20524;-87
2021/01/03 07:50:21;;;;;;;0.40;0.40;;;;;;;;;;4993980;28;20508;-88
2021/01/03 07:52:54;;;;;;;1.42;0.68;;;;;;;;;;5011020;28;20093;-87
2021/01/03 07:55:23;;;;;;;0.57;0.50;;;;;;;;;;5011130;28;20042;-87
2021/01/03 07:58:06;;;;;;;0.93;0.52;;;;;;;;;;5011283;28;20068;-87
2021/01/03 08:00:37;;;;;;;1.30;0.60;;;;;;;;;;4993877;28;20014;-87
2021/01/03 08:03:07;;;;;;;0.77;0.57;;;;;;;;;;4993110;28;20401;-87
2021/01/03 08:05:34;;;;;;;0.60;0.60;;;;;;;;;;5010712;28;20022;-87
2021/01/03 08:08:11;;;;;;;1.20;0.75;;;;;;;;;;4993306;28;20116;-87
2021/01/03 08:10:37;;;;;;;0.77;0.60;;;;;;;;;;5011210;28;20032;-87
2021/01/03 08:13:07;;;;;;;0.95;0.95;;;;;;;;;;5010885;28;20519;-88
2021/01/03 08:15:34;;;;;;;0.55;0.55;;;;;;;;;;5011409;28;20429;-87
2021/01/03 08:18:02;;;;;;;0.82;0.55;;;;;;;;;;4993140;28;20029;-87
2021/01/03 08:20:28;;;;;;;0.90;0.88;;;;;;;;;;4993147;28;20033;-87
2021/01/03 08:22:54;;;;;;;0.73;0.73;;;;;;;;;;4992578;28;20026;-87
2021/01/03 08:25:29;;;;;;;0.82;0.50;;;;;;;;;;4993356;28;20025;-87
2021/01/03 08:28:09;;;;;;;0.60;0.60;;;;;;;;;;4993326;28;20029;-87
2021/01/03 08:30:36;;;;;;;0.57;0.50;;;;;;;;;;4993177;28;20048;-87
2021/01/03 08:33:10;;;;;;;0.40;0.40;;;;;;;;;;5010410;28;20456;-87
2021/01/03 08:35:36;;;;;;;0.80;0.80;;;;;;;;;;5010044;28;20041;-87
2021/01/03 08:38:02;;;;;;;0.85;0.85;;;;;;;;;;5010144;28;20496;-87
2021/01/03 08:40:28;;;;;;;0.40;0.40;;;;;;;;;;5011511;28;20029;-87
2021/01/03 08:43:09;;;;;;;0.60;0.60;;;;;;;;;;5011755;28;20073;-87
2021/01/03 08:45:38;;;;;;;1.58;0.85;;;;;;;;;;4997725;28;20042;-87
2021/01/03 08:48:05;;;;;;;0.32;0.32;;;;;;;;;;4997629;28;20022;-87
2021/01/03 08:50:33;;;;;;;0.35;0.35;;;;;;;;;;4997411;28;20026;-87
2021/01/03 08:53:07;;;;;;;1.35;0.52;;;;;;;;;;4996663;28;20072;-87
2021/01/03 08:55:35;;;;;;;0.32;0.32;;;;;;;;;;4997493;28;20061;-87
2021/01/03 08:58:02;;;;;;;0.65;0.65;;;;;;;;;;5014512;28;20036;-87
2021/01/03 09:00:31;;;;;;;0.60;0.57;;;;;;;;;;4991778;28;20014;-87
2021/01/03 09:02:59;;;;;;;1.15;0.90;;;;;;;;;;4995848;28;20137;-87
2021/01/03 09:05:26;;;;;;;1.70;0.93;;;;;;;;;;5012837;28;20018;-87
2021/01/03 09:07:53;;;;;;;1.15;0.90;;;;;;;;;;5013343;28;20119;-88
2021/01/03 09:10:22;;;;;;;1.48;1.13;;;;;;;;;;4995962;28;20057;-87
2021/01/03 09:12:48;;;;;;;1.42;1.27;;;;;;;;;;4995736;28;20485;-87
2021/01/03 09:15:22;;;;;;;1.30;1.20;;;;;;;;;;4995730;28;20488;-87
2021/01/03 09:18:01;;;;;;;1.23;1.23;;;;;;;;;;5012489;28;20038;-86
2021/01/03 09:20:36;;;;;;;1.42;1.33;;;;;;;;;;5012644;28;20401;-87
2021/01/03 09:23:08;;;;;;;1.42;1.33;;;;;;;;;;4994959;28;20030;-87
2021/01/03 09:25:36;;;;;;;1.25;1.15;;;;;;;;;;4995799;28;20026;-87
2021/01/03 09:28:08;;;;;;;1.30;1.10;;;;;;;;;;4995661;28;20026;-88
2021/01/03 09:30:36;;;;;;;1.70;1.60;;;;;;;;;;5013828;28;20038;-88
2021/01/03 09:33:05;;;;;;;1.50;1.40;;;;;;;;;;5013298;28;20121;-88
2021/01/03 09:35:50;;;;;;;1.35;1.10;;;;;;;;;;5013093;28;20030;-87
2021/01/03 09:38:36;;;;;;;1.30;1.20;;;;;;;;;;4993110;28;20081;-87
2021/01/03 09:41:05;;;;;;;0.80;0.80;;;;;;;;;;4994620;28;20035;-87
2021/01/03 09:43:50;;;;;;;2.00;1.88;;;;;;;;;;4992636;28;20137;-87
2021/01/03 09:46:27;;;;;;;1.30;1.20;;;;;;;;;;4993459;28;20308;-87
2021/01/03 09:48:53;;;;;;;1.63;1.20;;;;;;;;;;4993847;28;20023;-88
2021/01/03 09:51:39;;;;;;;1.88;1.73;;;;;;;;;;4994138;28;20030;-87
2021/01/03 09:54:08;;;;;;;2.38;1.20;;;;;;;;;;4992035;28;20475;-87
2021/01/03 09:56:36;;;;;;;1.38;1.27;;;;;;;;;;4993919;28;20054;-87
2021/01/03 09:59:14;;;;;;;1.10;0.85;;;;;;;;;;4992884;28;20038;-88
2021/01/03 10:01:41;;;;;;;1.35;1.27;;;;;;;;;;4992661;28;20560;-87
2021/01/03 10:04:13;;;;;;;1.30;1.20;;;;;;;;;;4992425;28;20035;-88
2021/01/03 10:06:40;;;;;;;1.40;1.30;;;;;;;;;;4993117;28;20097;-87
2021/01/03 10:09:25;;;;;;;1.23;1.13;;;;;;;;;;4992408;28;20536;-88
2021/01/03 10:11:52;;;;;;;1.30;1.20;;;;;;;;;;4993344;28;20033;-88
2021/01/03 10:14:34;;;;;;;2.10;1.73;;;;;;;;;;4992538;28;20093;-88
2021/01/03 10:17:16;;;;;;;1.23;0.98;;;;;;;;;;4992303;28;20181;-88
2021/01/03 10:19:43;;;;;;;1.20;1.10;;;;;;;;;;4993369;28;20078;-88
2021/01/03 10:22:27;;;;;;;1.92;1.20;;;;;;;;;;4992331;28;20040;-88
2021/01/03 10:25:00;;;;;;;1.73;1.63;;;;;;;;;;4992952;28;20041;-87
2021/01/03 10:27:27;;;;;;;1.75;1.65;;;;;;;;;;4992351;28;20022;-88
2021/01/03 10:29:53;;;;;;;1.67;1.58;;;;;;;;;;4993383;28;20450;-88
2021/01/03 10:32:19;;;;;;;2.58;2.38;;;;;;;;;;4993176;28;20026;-88
2021/01/03 10:34:45;;;;;;;1.48;1.15;;;;;;;;;;4992568;28;20072;-87
2021/01/03 10:37:11;;;;;;;3.42;2.28;;;;;;;;;;4993167;28;20125;-88
2021/01/03 10:39:37;;;;;;;1.30;1.20;;;;;;;;;;4994204;28;20033;-87
2021/01/03 10:42:05;;;;;;;1.58;1.17;;;;;;;;;;5012620;28;20025;-88
2021/01/03 10:44:31;;;;;;;1.85;1.67;;;;;;;;;;5013515;28;20478;-88
2021/01/03 10:46:57;;;;;;;2.50;2.30;;;;;;;;;;5012938;28;20047;-87
2021/01/03 10:49:23;;;;;;;4.00;2.25;;;;;;;;;;5013051;28;20374;-87
2021/01/03 10:51:50;;;;;;;1.90;1.80;;;;;;;;;;4994828;28;20033;-87
2021/01/03 10:54:25;;;;;;;1.55;1.45;;;;;;;;;;4993810;28;20109;-88
2021/01/03 10:56:55;;;;;;;2.67;2.45;;;;;;;;;;4994219;28;20033;-87
2021/01/03 10:59:21;;;;;;;1.40;1.30;;;;;;;;;;5012430;28;20081;-87
2021/01/03 11:01:48;;;;;;;2.10;1.73;;;;;;;;;;4994688;28;20051;-88
2021/01/03 11:04:18;;;;;;;1.58;1.42;;;;;;;;;;4994592;28;20230;-88
2021/01/03 11:06:46;;;;;;;1.27;1.17;;;;;;;;;;4992759;28;20549;-87
2021/01/03 11:09:19;;;;;;;1.55;1.30;;;;;;;;;;4994122;28;20029;-88
2021/01/03 11:11:46;;;;;;;2.42;2.00;;;;;;;;;;5012269;28;20029;-88
2021/01/03 11:14:12;;;;;;;2.42;2.17;;;;;;;;;;4994375;28;20037;-88
2021/01/03 11:16:39;;;;;;;1.52;1.42;;;;;;;;;;4994750;28;20037;-87
2021/01/03 11:19:06;;;;;;;2.97;1.48;;;;;;;;;;4994257;28;20030;-88
2021/01/03 11:21:33;;;;;;;1.98;1.80;;;;;;;;;;4994214;28;20379;-87
2021/01/03 11:23:59;;;;;;;1.92;1.17;;;;;;;;;;5011664;28;20521;-88
2021/01/03 11:26:29;;;;;;;1.58;1.35;;;;;;;;;;4994205;28;20030;-88
2021/01/03 11:28:56;;;;;;;1.42;1.33;;;;;;;;;;4994164;28;20456;-87
2021/01/03 11:31:22;;;;;;;1.83;1.73;;;;;;;;;;4993987;28;20033;-87
2021/01/03 11:33:48;;;;;;;2.05;1.50;;;;;;;;;;5011618;28;20526;-87
2021/01/03 11:36:17;;;;;;;2.05;1.70;;;;;;;;;;4992877;28;20028;-87
2021/01/03 11:38:43;;;;;;;1.50;1.40;;;;;;;;;;5010715;28;20500;-88
2021/01/03 11:41:11;;;;;;;1.10;1.00;;;;;;;;;;5011016;28;20033;-87
2021/01/03 11:43:37;;;;;;;1.85;1.10;;;;;;;;;;5011342;28;20049;-88
2021/01/03 11:46:03;;;;;;;0.90;0.90;;;;;;;;;;5011513;28;20033;-88
2021/01/03 11:48:29;;;;;;;1.58;1.33;;;;;;;;;;5011769;28;20552;-87
2021/01/03 11:50:55;;;;;;;1.70;1.60;;;;;;;;;;5011590;28;20536;-87
2021/01/03 11:53:21;;;;;;;2.08;1.10;;;;;;;;;;5011303;28;20369;-87
2021/01/03 11:55:47;;;;;;;2.35;1.98;;;;;;;;;;4993625;28;20034;-88
2021/01/03 11:58:13;;;;;;;1.33;1.23;;;;;;;;;;5011294;28;20105;-88
2021/01/03 12:00:40;;;;;;;1.95;1.40;;;;;;;;;;4993831;28;20017;-88
2021/01/03 12:03:06;;;;;;;1.95;1.30;;;;;;;;;;5011297;28;20033;-88
2021/01/03 12:05:32;;;;;;;0.90;0.82;;;;;;;;;;4992302;28;20519;-88
2021/01/03 12:07:59;;;;;;;2.70;1.67;;;;;;;;;;5011369;28;20427;-87
2021/01/03 12:10:25;;;;;;;1.35;1.13;;;;;;;;;;5011065;28;20026;-87
2021/01/03 12:12:51;;;;;;;1.23;1.15;;;;;;;;;;5010998;28;20037;-87
2021/01/03 12:15:18;;;;;;;1.15;0.93;;;;;;;;;;5011324;28;20489;-87
2021/01/03 12:17:44;;;;;;;1.20;0.93;;;;;;;;;;4992157;28;20025;-88
2021/01/03 12:20:11;;;;;;;1.15;1.08;;;;;;;;;;4993283;28;20018;-88
2021/01/03 12:22:37;;;;;;;0.93;0.90;;;;;;;;;;4993181;28;20026;-88
2021/01/03 12:25:04;;;;;;;1.33;1.10;;;;;;;;;;5011003;28;20022;-88
2021/01/03 12:27:30;;;;;;;1.15;1.02;;;;;;;;;;5010753;28;20485;-88
2021/01/03 12:29:56;;;;;;;1.23;1.08;;;;;;;;;;5011069;28;20551;-88
2021/01/03 12:32:22;;;;;;;1.05;0.98;;;;;;;;;;4993206;28;20034;-88
2021/01/03 12:34:48;;;;;;;1.13;1.05;;;;;;;;;;5009781;28;20095;-87
2021/01/03 12:37:17;;;;;;;1.17;0.77;;;;;;;;;;4991910;28;20520;-88
2021/01/03 12:39:43;;;;;;;1.30;1.20;;;;;;;;;;4990482;28;20463;-87
2021/01/03 12:42:11;;;;;;;3.00;1.27;;;;;;;;;;4991203;28;20022;-87
2021/01/03 12:44:37;;;;;;;1.20;0.82;;;;;;;;;;4973537;28;20069;-88
2021/01/03 12:47:03;;;;;;;1.08;0.95;;;;;;;;;;4991425;28;20085;-87
2021/01/03 12:49:29;;;;;;;1.80;1.13;;;;;;;;;;4991092;28;20030;-88
2021/01/03 12:51:56;;;;;;;1.13;1.13;;;;;;;;;;4973609;28;20125;-88
2021/01/03 12:54:22;;;;;;;1.98;1.05;;;;;;;;;;4990800;28;20054;-88
2021/01/03 12:56:48;;;;;;;1.17;1.08;;;;;;;;;;4990056;28;20065;-88
2021/01/03 12:59:15;;;;;;;1.67;1.20;;;;;;;;;;4990846;28;20026;-88
2021/01/03 13:01:43;;;;;;;1.23;1.13;;;;;;;;;;4965517;28;20023;-88
2021/01/03 13:04:09;;;;;;;2.10;1.60;;;;;;;;;;4973581;28;20018;-87
2021/01/03 13:06:36;;;;;;;0.88;0.88;;;;;;;;;;4972305;28;20074;-87
2021/01/03 13:09:03;;;;;;;1.25;0.95;;;;;;;;;;4990983;28;20022;-87
2021/01/03 13:11:29;;;;;;;1.95;1.40;;;;;;;;;;4973520;28;20051;-88
2021/01/03 13:13:55;;;;;;;1.05;1.05;;;;;;;;;;4990474;28;20030;-88
2021/01/03 13:16:21;;;;;;;1.45;0.88;;;;;;;;;;4990663;28;20030;-88
2021/01/03 13:18:48;;;;;;;1.73;0.93;;;;;;;;;;4973245;28;20070;-88
2021/01/03 13:21:17;;;;;;;0.98;0.80;;;;;;;;;;4973359;28;20038;-87
2021/01/03 13:23:43;;;;;;;2.05;0.95;;;;;;;;;;4973204;28;20021;-88
2021/01/03 13:26:09;;;;;;;1.08;0.98;;;;;;;;;;4973697;28;20029;-88
2021/01/03 13:28:35;;;;;;;1.13;1.02;;;;;;;;;;4990618;28;20045;-87
2021/01/03 13:31:02;;;;;;;1.00;1.00;;;;;;;;;;4993654;28;20058;-88
2021/01/03 13:33:28;;;;;;;1.58;1.30;;;;;;;;;;4976904;28;20565;-87
2021/01/03 13:35:54;;;;;;;1.40;1.05;;;;;;;;;;4992544;28;20034;-88
2021/01/03 13:38:22;;;;;;;1.13;1.05;;;;;;;;;;5004397;28;20396;-88
2021/01/03 13:40:48;;;;;;;1.85;1.75;;;;;;;;;;4996490;28;20117;-87
2021/01/03 13:43:14;;;;;;;1.00;0.93;;;;;;;;;;5013325;28;20026;-88
2021/01/03 13:45:40;;;;;;;1.48;0.80;;;;;;;;;;4996295;28;20060;-87
2021/01/03 13:48:07;;;;;;;1.05;1.02;;;;;;;;;;4996429;28;20416;-88
2021/01/03 13:50:33;;;;;;;1.02;0.90;;;;;;;;;;5013618;28;20026;-88
2021/01/03 13:53:02;;;;;;;1.50;1.38;;;;;;;;;;4995870;28;20034;-88
2021/01/03 13:55:28;;;;;;;1.17;1.08;;;;;;;;;;4996289;28;20089;-87
2021/01/03 13:57:54;;;;;;;1.80;1.50;;;;;;;;;;4995734;28;20149;-88
2021/01/03 14:00:23;;;;;;;2.20;1.52;;;;;;;;;;5013691;28;20022;-87
2021/01/03 14:02:49;;;;;;;2.17;1.80;;;;;;;;;;5013156;28;20080;-88
2021/01/03 14:05:16;;;;;;;2.88;1.65;;;;;;;;;;4994780;28;20401;-87
2021/01/03 14:07:42;;;;;;;2.65;1.90;;;;;;;;;;5013177;28;20029;-88
2021/01/03 14:10:09;;;;;;;4.25;1.80;;;;;;;;;;4995775;28;20362;-88
2021/01/03 14:12:36;;;;;;;1.83;1.73;;;;;;;;;;4995025;28;20026;-87
2021/01/03 14:15:04;;;;;;;2.58;2.28;;;;;;;;;;4994940;28;20030;-88
2021/01/03 14:17:31;;;;;;;2.85;1.73;;;;;;;;;;4995543;28;20109;-87
2021/01/03 14:19:57;;;;;;;1.67;1.48;;;;;;;;;;4995366;28;20030;-87
2021/01/03 14:22:23;;;;;;;2.47;2.00;;;;;;;;;;4995020;28;20026;-87
2021/01/03 14:24:49;;;;;;;2.08;1.77;;;;;;;;;;5013171;28;20108;-88
2021/01/03 14:27:15;;;;;;;2.72;2.20;;;;;;;;;;5012886;28;20393;-88
2021/01/03 14:29:41;;;;;;;2.58;2.10;;;;;;;;;;4995422;28;20389;-88
2021/01/03 14:32:07;;;;;;;2.60;2.30;;;;;;;;;;5012676;28;20089;-88
2021/01/03 14:34:45;;;;;;;3.55;2.47;;;;;;;;;;4994331;28;20045;-88
2021/01/03 14:37:18;;;;;;;4.35;2.88;;;;;;;;;;5012657;28;20037;-87
2021/01/03 14:39:44;;;;;;;2.22;1.75;;;;;;;;;;4994887;28;20133;-88
2021/01/03 14:42:11;;;;;;;3.08;1.67;;;;;;;;;;4994813;28;20033;-88
2021/01/03 14:44:38;;;;;;;3.03;2.22;;;;;;;;;;4994532;28;20116;-87
2021/01/03 14:47:19;;;;;;;3.38;2.80;;;;;;;;;;5012783;28;20041;-88
2021/01/03 14:49:56;;;;;;;2.42;2.15;;;;;;;;;;4995097;28;20432;-88
2021/01/03 14:52:31;;;;;;;3.90;3.33;;;;;;;;;;4994696;28;20030;-88